createdAt,value
2023-04-10T00:03:00.172Z,8.30
2023-04-10T00:07:09.914Z,8.60
2023-04-10T00:11:19.283Z,8.37
2023-04-10T00:15:33.393Z,8.90
2023-04-10T00:19:44.435Z,8.43
2023-04-10T00:23:53.930Z,8.77
2023-04-10T00:28:03.293Z,9.00
2023-04-10T00:32:12.583Z,8.60
2023-04-10T00:36:23.558Z,8.90
2023-04-10T00:40:32.993Z,8.73
2023-04-10T00:44:42.175Z,9.20
2023-04-10T00:48:52.914Z,9.57
2023-04-10T00:53:05.781Z,9.17
2023-04-10T00:57:15.381Z,9.23
2023-04-10T01:01:24.553Z,8.43
2023-04-10T01:05:42.777Z,8.67
2023-04-10T01:10:00.819Z,9.17
2023-04-10T01:14:18.731Z,7.67
2023-04-10T01:18:33.494Z,8.70
2023-04-10T01:22:53.871Z,7.97
2023-04-10T01:27:15.094Z,8.23
2023-04-10T01:31:32.335Z,7.77
2023-04-10T01:35:43.996Z,7.57
2023-04-10T01:39:59.646Z,7.17
2023-04-10T01:44:12.141Z,7.33
2023-04-10T01:48:23.219Z,8.67
2023-04-10T01:52:33.942Z,7.77
2023-04-10T01:56:43.535Z,7.67
2023-04-10T02:00:52.756Z,7.20
2023-04-10T02:05:04.052Z,7.30
2023-04-10T02:09:21.182Z,7.13
2023-04-10T02:13:32.525Z,7.50
2023-04-10T02:17:42.508Z,6.40
2023-04-10T02:21:53.979Z,6.50
2023-04-10T02:26:09.556Z,5.77
2023-04-10T02:30:18.829Z,6.77
2023-04-10T02:34:28.199Z,5.37
2023-04-10T02:38:38.999Z,5.93
2023-04-10T02:42:48.226Z,5.80
2023-04-10T02:46:57.401Z,5.33
2023-04-10T02:51:07.940Z,5.53
2023-04-10T02:55:18.759Z,4.70
2023-04-10T02:59:28.223Z,4.67
2023-04-10T03:03:38.034Z,5.00
2023-04-10T03:07:47.794Z,5.07
2023-04-10T03:11:58.446Z,4.87
2023-04-10T03:16:08.521Z,4.83
2023-04-10T03:20:17.955Z,4.40
2023-04-10T03:24:27.495Z,4.70
2023-04-10T03:28:38.322Z,5.07
2023-04-10T03:32:47.476Z,4.93
2023-04-10T03:36:56.776Z,4.90
2023-04-10T03:41:06.278Z,4.83
2023-04-10T03:45:17.444Z,5.67
2023-04-10T03:49:26.714Z,5.10
2023-04-10T03:53:37.370Z,4.80
2023-04-10T03:57:46.812Z,5.40
2023-04-10T04:01:57.924Z,4.83
2023-04-10T04:06:07.894Z,5.23
2023-04-10T04:10:17.100Z,5.67
2023-04-10T04:14:26.380Z,6.10
2023-04-10T04:18:37.078Z,5.60
2023-04-10T04:22:46.738Z,5.57
2023-04-10T04:26:56.936Z,5.33
2023-04-10T04:31:06.425Z,5.90
2023-04-10T04:35:17.206Z,6.97
2023-04-10T04:39:26.774Z,5.63
2023-04-10T04:43:36.354Z,6.10
2023-04-10T04:47:45.570Z,6.33
2023-04-10T04:51:56.210Z,6.60
2023-04-10T04:56:05.705Z,6.37
2023-04-10T05:00:17.215Z,6.47
2023-04-10T05:04:27.630Z,7.63
2023-04-10T05:08:38.475Z,7.40
2023-04-10T05:12:47.628Z,7.47
2023-04-10T05:16:56.922Z,6.70
2023-04-10T05:21:06.511Z,6.00
2023-04-10T05:25:17.387Z,7.23
2023-04-10T05:29:26.654Z,7.43
2023-04-10T05:33:36.069Z,8.50
2023-04-10T05:37:45.613Z,6.90
2023-04-10T05:41:56.569Z,6.93
2023-04-10T05:46:05.919Z,6.23
2023-04-10T05:50:15.189Z,7.07
2023-04-10T05:54:24.416Z,6.47
2023-04-10T05:58:35.193Z,6.63
2023-04-10T06:02:46.795Z,7.13
2023-04-10T06:06:56.369Z,6.27
2023-04-10T06:11:05.787Z,6.63
2023-04-10T06:15:16.772Z,6.07
2023-04-10T06:19:26.044Z,7.00
2023-04-10T06:23:35.170Z,6.13
2023-04-10T06:27:44.667Z,6.50
2023-04-10T06:31:55.538Z,7.27
2023-04-10T06:36:08.289Z,7.23
2023-04-10T06:40:17.599Z,7.47
2023-04-10T06:44:26.811Z,7.70
2023-04-10T06:48:37.713Z,8.00
2023-04-10T06:52:47.913Z,7.83
2023-04-10T06:56:59.151Z,7.40
2023-04-10T07:01:08.857Z,8.10
2023-04-10T07:05:20.259Z,7.00
2023-04-10T07:09:29.706Z,7.57
2023-04-10T07:13:40.441Z,7.60
2023-04-10T07:18:15.846Z,6.80
2023-04-10T07:22:26.897Z,7.77
2023-04-10T07:26:38.776Z,6.90
2023-04-10T07:30:47.971Z,7.23
2023-04-10T07:34:57.172Z,6.77
2023-04-10T07:39:07.874Z,7.20
2023-04-10T07:43:17.060Z,6.93
2023-04-10T07:47:26.206Z,7.10
2023-04-10T07:51:35.442Z,7.07
2023-04-10T07:55:49.213Z,6.70
2023-04-10T07:59:58.957Z,7.97
2023-04-10T08:04:08.400Z,8.00
2023-04-10T08:08:19.678Z,7.67
2023-04-10T08:12:33.374Z,6.27
2023-04-10T08:16:58.337Z,7.13
2023-04-10T08:21:10.974Z,6.23
2023-04-10T08:25:20.151Z,5.77
2023-04-10T08:29:31.194Z,7.30
2023-04-10T08:33:44.446Z,6.47
2023-04-10T08:38:07.798Z,6.77
2023-04-10T08:42:22.854Z,6.13
2023-04-10T08:46:43.894Z,6.90
2023-04-10T08:50:53.551Z,6.27
2023-04-10T08:55:07.970Z,6.10
2023-04-10T08:59:17.494Z,5.70
2023-04-10T09:03:29.194Z,6.57
2023-04-10T09:07:38.517Z,4.77
2023-04-10T09:12:04.477Z,5.77
2023-04-10T09:16:30.244Z,5.93
2023-04-10T09:20:43.489Z,5.03
2023-04-10T09:24:53.856Z,5.90
2023-04-10T09:29:04.627Z,5.50
2023-04-10T09:33:28.495Z,5.87
2023-04-10T09:37:42.769Z,5.40
2023-04-10T09:41:54.718Z,5.73
2023-04-10T09:46:03.889Z,6.13
2023-04-10T09:50:13.010Z,5.60
2023-04-10T09:54:38.627Z,6.07
2023-04-10T09:58:47.816Z,6.17
2023-04-10T10:02:59.548Z,5.30
2023-04-10T10:07:09.209Z,6.00
2023-04-10T10:11:23.146Z,5.47
2023-04-10T10:15:40.536Z,5.90
2023-04-10T10:19:58.891Z,5.27
2023-04-10T10:24:10.912Z,5.57
2023-04-10T10:28:22.902Z,5.00
2023-04-10T10:32:32.734Z,6.70
2023-04-10T10:36:42.900Z,6.10
2023-04-10T10:41:02.381Z,5.90
2023-04-10T10:45:16.933Z,6.60
2023-04-10T10:49:56.735Z,7.33
2023-04-10T10:54:06.162Z,6.83
2023-04-10T10:58:17.543Z,7.23
2023-04-10T11:02:28.403Z,6.80
2023-04-10T11:06:55.438Z,6.67
2023-04-10T11:11:06.035Z,6.40
2023-04-10T11:15:15.721Z,6.43
2023-04-10T11:19:26.757Z,6.87
2023-04-10T11:23:36.337Z,6.87
2023-04-10T11:27:53.166Z,6.00
2023-04-10T11:32:03.599Z,7.00
2023-04-10T11:36:17.872Z,6.17
2023-04-10T11:40:27.010Z,5.70
2023-04-10T11:44:37.496Z,6.60
2023-04-10T11:48:46.636Z,5.87
2023-04-10T11:52:57.541Z,5.70
2023-04-10T11:57:09.692Z,5.53
2023-04-10T12:01:22.513Z,6.00
2023-04-10T12:05:47.888Z,6.17
2023-04-10T12:10:00.368Z,5.20
2023-04-10T12:14:09.656Z,4.37
2023-04-10T12:18:19.011Z,4.57
2023-04-10T12:22:28.490Z,6.30
2023-04-10T12:26:39.352Z,5.40
2023-04-10T12:30:53.304Z,5.53
2023-04-10T12:35:12.055Z,5.77
2023-04-10T12:39:35.335Z,5.13
2023-04-10T12:44:09.733Z,5.70
2023-04-10T12:48:33.737Z,5.40
2023-04-10T12:52:52.133Z,5.13
2023-04-10T12:57:07.979Z,5.23
2023-04-10T13:01:33.131Z,6.07
2023-04-10T13:06:04.215Z,5.10
2023-04-10T13:10:18.025Z,5.30
2023-04-10T13:14:36.128Z,5.53
2023-04-10T13:34:28.136Z,5.13
2023-04-10T13:43:39.410Z,5.17
2023-04-10T13:47:50.384Z,5.83
2023-04-10T13:51:59.917Z,6.27
2023-04-10T13:56:10.268Z,6.40
2023-04-10T14:00:20.015Z,6.37
2023-04-10T14:04:31.062Z,6.00
2023-04-10T14:08:40.281Z,5.87
2023-04-10T14:12:49.445Z,6.77
2023-04-10T14:16:58.629Z,6.10
2023-04-10T14:21:12.112Z,6.27
2023-04-10T14:25:21.304Z,5.90
2023-04-10T14:29:36.309Z,6.77
2023-04-10T14:33:48.168Z,6.47
2023-04-10T14:37:58.610Z,7.07
2023-04-10T14:42:08.158Z,6.93
2023-04-10T14:46:17.320Z,7.43
2023-04-10T14:50:26.541Z,6.70
2023-04-10T14:54:37.074Z,6.20
2023-04-10T14:58:47.577Z,6.67
2023-04-10T15:02:57.599Z,6.43
2023-04-10T15:07:06.874Z,5.63
2023-04-10T15:11:17.435Z,5.93
2023-04-10T15:15:26.631Z,6.43
2023-04-10T15:19:35.752Z,6.37
2023-04-10T15:23:45.130Z,6.33
2023-04-10T15:27:56.820Z,6.03
2023-04-10T15:32:06.811Z,6.40
2023-04-10T15:36:15.958Z,6.70
2023-04-10T15:40:25.188Z,6.10
2023-04-10T15:44:35.814Z,6.37
2023-04-10T15:48:46.312Z,7.47
2023-04-10T15:52:55.523Z,6.93
2023-04-10T15:57:05.713Z,6.57
2023-04-10T16:01:16.888Z,6.13
2023-04-10T16:05:26.152Z,6.07
2023-04-10T16:09:35.330Z,6.63
2023-04-10T16:13:45.089Z,7.27
2023-04-10T16:17:55.701Z,6.23
2023-04-10T16:22:04.874Z,6.70
2023-04-10T16:26:13.870Z,6.63
2023-04-10T16:30:23.196Z,6.63
2023-04-10T16:39:46.038Z,5.87
2023-04-10T16:49:07.491Z,4.43
2023-04-10T16:53:38.338Z,3.83
2023-04-10T16:57:50.289Z,3.53
2023-04-10T17:01:59.649Z,3.47
2023-04-10T17:06:09.067Z,2.63
2023-04-10T17:10:19.989Z,2.67
2023-04-10T17:14:30.611Z,3.17
2023-04-10T17:18:39.689Z,2.90
2023-04-10T17:22:48.872Z,2.70
2023-04-10T17:26:58.452Z,3.00
2023-04-10T17:31:09.386Z,3.17
2023-04-10T17:35:18.731Z,3.47
2023-04-10T17:39:28.472Z,2.90
2023-04-10T17:43:37.675Z,3.70
2023-04-10T17:47:48.809Z,3.47
2023-04-10T17:51:57.973Z,3.90
2023-04-10T17:56:07.804Z,5.20
2023-04-10T18:00:20.609Z,4.37
2023-04-10T18:04:31.740Z,4.50
2023-04-10T18:08:59.940Z,4.47
2023-04-10T18:13:09.612Z,5.00
2023-04-10T18:17:19.645Z,4.07
2023-04-10T18:21:30.770Z,3.80
2023-04-10T18:25:42.273Z,4.27
2023-04-10T18:29:51.753Z,4.60
2023-04-10T18:34:07.973Z,4.90
2023-04-10T18:38:18.420Z,4.00
2023-04-10T18:42:32.164Z,3.87
2023-04-10T18:51:27.685Z,3.70
2023-04-10T18:55:38.063Z,4.47
2023-04-10T18:59:48.810Z,4.23
2023-04-10T19:03:58.940Z,4.77
2023-04-10T19:08:09.050Z,4.03
2023-04-10T19:12:18.649Z,5.07
2023-04-10T19:16:30.260Z,4.10
2023-04-10T19:20:50.394Z,4.67
2023-04-10T19:25:01.980Z,4.07
2023-04-10T19:29:11.240Z,4.07
2023-04-10T19:33:22.301Z,4.03
2023-04-10T19:37:33.109Z,3.80
2023-04-10T19:41:42.884Z,3.83
2023-04-10T19:45:53.463Z,3.77
2023-04-10T19:50:04.488Z,4.37
2023-04-10T19:54:13.627Z,3.77
2023-04-10T19:58:38.921Z,4.40
2023-04-10T20:02:49.561Z,3.47
2023-04-10T20:07:00.652Z,4.03
2023-04-10T20:11:09.989Z,4.53
2023-04-10T20:15:20.865Z,3.97
2023-04-10T20:19:30.007Z,4.40
2023-04-10T20:23:40.904Z,4.30
2023-04-10T20:27:50.125Z,3.77
2023-04-10T20:31:59.357Z,3.77
2023-04-10T20:36:09.266Z,3.93
2023-04-10T20:40:20.261Z,3.53
2023-04-10T20:44:29.423Z,3.13
2023-04-10T20:48:38.952Z,2.87
2023-04-10T20:52:48.443Z,3.77
2023-04-10T20:57:00.368Z,3.43
2023-04-10T21:01:12.908Z,3.43
2023-04-10T21:05:25.425Z,3.43
2023-04-10T21:09:34.619Z,3.23
2023-04-10T21:13:45.278Z,3.07
2023-04-10T21:17:54.399Z,3.20
2023-04-10T21:22:03.548Z,2.80
2023-04-10T21:26:12.799Z,3.10
2023-04-10T21:30:23.712Z,3.67
2023-04-10T21:34:36.073Z,2.60
2023-04-10T21:38:45.431Z,3.40
2023-04-10T21:42:56.599Z,3.60
2023-04-10T21:47:07.699Z,3.63
2023-04-10T21:51:17.694Z,3.90
2023-04-10T21:55:27.169Z,3.27
2023-04-10T21:59:37.027Z,3.53
2023-04-10T22:03:48.002Z,3.17
2023-04-10T22:07:57.362Z,3.27
2023-04-10T22:12:06.892Z,3.27
2023-04-10T22:16:16.092Z,3.67
2023-04-10T22:20:26.830Z,3.73
2023-04-10T22:24:36.034Z,3.80
2023-04-10T22:28:45.251Z,3.87
2023-04-10T22:32:57.554Z,3.60
2023-04-10T22:37:08.496Z,3.60
2023-04-10T22:41:17.619Z,3.50
2023-04-10T22:45:27.091Z,3.53
2023-04-10T22:49:36.290Z,3.93
2023-04-10T22:53:47.113Z,3.53
2023-04-10T22:57:56.179Z,3.87
2023-04-10T23:02:05.981Z,2.70
2023-04-10T23:06:15.252Z,3.70
2023-04-10T23:10:25.856Z,3.70
2023-04-10T23:14:37.215Z,4.40
2023-04-10T23:18:46.372Z,3.37
2023-04-10T23:22:57.617Z,4.20
2023-04-10T23:27:08.718Z,4.50
2023-04-10T23:31:17.899Z,4.53
2023-04-10T23:35:29.857Z,3.43
2023-04-10T23:39:39.099Z,3.53
2023-04-10T23:43:49.856Z,3.57
2023-04-10T23:47:58.975Z,3.97
2023-04-10T23:52:08.070Z,3.33
2023-04-10T23:56:17.476Z,2.93
